Time;durP1;ratioP1;P1;durP2;ratioP2;P2;SDS_P1;SDS_P2;PMS_P1;PMS_P2;Temp;Humidity;BMP_temperature;BMP_pressure;BME280_temperature;BME280_humidity;BME280_pressure;Samples;Min_cycle;Max_cycle;Signal;HPM_P1;HPM_P2
2021/01/10 00:00:48;;;;;;;16.33;11.60;;;-3.00;99.90;;;;;;5080242;28;20241;-81
2021/01/10 00:03:17;;;;;;;19.70;11.60;;;-3.00;99.90;;;;;;5080831;28;20212;-82
2021/01/10 00:05:45;;;;;;;23.17;12.55;;;-3.00;99.90;;;;;;5088439;28;20197;-82
2021/01/10 00:08:12;;;;;;;19.77;11.85;;;-3.10;99.90;;;;;;5101037;28;20204;-81
2021/01/10 00:10:39;;;;;;;23.23;11.68;;;-3.10;99.90;;;;;;5101601;28;20239;-82
2021/01/10 00:13:05;;;;;;;24.98;11.82;;;-3.10;99.90;;;;;;5100787;28;20217;-82
2021/01/10 00:15:32;;;;;;;27.77;13.48;;;-3.20;99.90;;;;;;5101012;28;20232;-83
2021/01/10 00:17:59;;;;;;;25.42;14.90;;;-3.20;99.90;;;;;;5101031;28;20292;-83
2021/01/10 00:20:27;;;;;;;16.38;10.50;;;-3.20;99.90;;;;;;5100441;28;20291;-83
2021/01/10 00:22:55;;;;;;;19.33;12.90;;;-3.20;99.90;;;;;;5099093;28;20721;-85
2021/01/10 00:25:22;;;;;;;21.95;13.68;;;-3.20;99.90;;;;;;5098816;28;20205;-84
2021/01/10 00:27:49;;;;;;;20.35;11.75;;;-3.20;99.90;;;;;;5099513;28;20236;-82
2021/01/10 00:30:18;;;;;;;24.63;14.95;;;-3.20;99.90;;;;;;5098219;28;20216;-83
2021/01/10 00:32:48;;;;;;;26.52;13.40;;;-3.20;99.90;;;;;;5099502;28;20288;-83
2021/01/10 00:35:14;;;;;;;23.23;12.50;;;-3.20;99.90;;;;;;5099773;28;20323;-83
2021/01/10 00:37:45;;;;;;;21.40;13.80;;;-3.20;99.90;;;;;;5099178;28;20288;-84
2021/01/10 00:40:13;;;;;;;19.85;10.68;;;-3.10;99.90;;;;;;5098980;28;20203;-83
2021/01/10 00:42:41;;;;;;;16.20;11.63;;;-3.10;99.90;;;;;;5098494;28;20295;-83
2021/01/10 00:45:09;;;;;;;28.42;14.90;;;-3.10;99.90;;;;;;5097574;28;20211;-83
2021/01/10 00:47:36;;;;;;;19.60;11.60;;;-3.20;99.90;;;;;;5097741;28;20672;-84
2021/01/10 00:50:05;;;;;;;20.63;12.40;;;-3.20;99.90;;;;;;5097413;28;20751;-83
2021/01/10 00:52:31;;;;;;;25.13;12.75;;;-3.30;99.90;;;;;;5096372;28;20268;-83
2021/01/10 00:54:57;;;;;;;22.17;14.40;;;-3.30;99.90;;;;;;5079926;28;20340;-83
2021/01/10 00:57:25;;;;;;;20.55;12.25;;;-3.20;99.90;;;;;;5099082;28;20200;-84
2021/01/10 00:59:51;;;;;;;23.60;12.38;;;-3.30;99.90;;;;;;5095134;28;20296;-83
2021/01/10 01:02:18;;;;;;;21.38;12.38;;;-3.20;99.90;;;;;;5096871;28;20292;-83
2021/01/10 01:04:45;;;;;;;25.42;12.23;;;-3.20;99.90;;;;;;5096835;28;20201;-83
2021/01/10 01:07:12;;;;;;;33.67;14.88;;;-3.20;99.90;;;;;;5097897;28;20201;-83
2021/01/10 01:09:38;;;;;;;24.35;14.88;;;-3.30;99.90;;;;;;5096097;28;20296;-83
2021/01/10 01:12:06;;;;;;;21.90;14.00;;;-3.40;99.90;;;;;;5095111;28;20258;-82
2021/01/10 01:14:33;;;;;;;23.00;14.13;;;-3.50;99.90;;;;;;5095126;28;20703;-82
2021/01/10 01:16:59;;;;;;;16.30;11.98;;;-3.50;99.90;;;;;;5095224;28;20287;-82
2021/01/10 01:19:26;;;;;;;20.30;11.45;;;-3.50;99.90;;;;;;5096175;28;20291;-83
2021/01/10 01:21:52;;;;;;;23.80;11.65;;;-3.50;99.90;;;;;;5095975;28;20291;-82
2021/01/10 01:24:21;;;;;;;15.25;10.77;;;-3.50;99.90;;;;;;5096280;28;20296;-82
2021/01/10 01:26:47;;;;;;;15.55;9.60;;;-3.50;99.90;;;;;;5095822;28;20286;-82
2021/01/10 01:29:14;;;;;;;19.58;11.65;;;-3.50;99.90;;;;;;5094208;28;20200;-82
2021/01/10 01:31:42;;;;;;;13.48;7.78;;;-3.60;99.90;;;;;;5094857;28;20641;-82
2021/01/10 01:34:08;;;;;;;12.80;8.18;;;-3.50;99.90;;;;;;5095756;28;20707;-82
2021/01/10 01:36:34;;;;;;;21.05;9.40;;;-3.40;99.90;;;;;;5095766;28;20353;-83
2021/01/10 01:39:02;;;;;;;10.75;7.88;;;-3.40;99.90;;;;;;5097543;28;20308;-82
2021/01/10 01:41:34;;;;;;;16.30;9.38;;;-3.50;99.90;;;;;;5095596;28;20244;-83
2021/01/10 01:44:01;;;;;;;16.45;9.90;;;-3.60;99.90;;;;;;5094911;28;20643;-83
2021/01/10 01:46:31;;;;;;;19.35;9.60;;;-3.60;99.90;;;;;;5094307;28;20295;-83
2021/01/10 01:49:00;;;;;;;11.27;8.05;;;-3.60;99.90;;;;;;5094418;28;20301;-84
2021/01/10 01:51:27;;;;;;;17.23;8.32;;;-3.60;99.90;;;;;;5094050;28;20201;-83
2021/01/10 01:53:54;;;;;;;20.48;8.75;;;-3.50;99.90;;;;;;5093801;28;20291;-83
2021/01/10 01:56:20;;;;;;;11.25;7.63;;;-3.50;99.90;;;;;;5094199;28;20205;-83
2021/01/10 01:58:57;;;;;;;13.10;8.07;;;-3.40;99.90;;;;;;5094244;28;20682;-82
2021/01/10 02:01:24;;;;;;;17.40;9.57;;;-3.40;99.90;;;;;;5093587;28;20201;-82
2021/01/10 02:03:54;;;;;;;16.27;9.90;;;-3.40;99.90;;;;;;5094196;28;20314;-82
2021/01/10 02:06:26;;;;;;;18.63;9.85;;;-3.40;99.90;;;;;;5093492;28;20563;-83
2021/01/10 02:08:58;;;;;;;21.63;13.30;;;-3.30;99.90;;;;;;5094193;28;20209;-82
2021/01/10 02:11:27;;;;;;;14.73;8.85;;;-3.30;99.90;;;;;;5093925;28;20251;-83
2021/01/10 02:13:54;;;;;;;19.88;10.50;;;-3.30;99.90;;;;;;5093880;28;20295;-81
2021/01/10 02:16:21;;;;;;;18.35;10.48;;;-3.40;99.90;;;;;;5092891;28;20747;-82
2021/01/10 02:18:48;;;;;;;21.27;11.45;;;-3.40;99.90;;;;;;5094307;28;20283;-84
2021/01/10 02:21:17;;;;;;;17.35;9.77;;;-3.50;99.90;;;;;;5093818;28;20200;-84
2021/01/10 02:23:46;;;;;;;14.95;8.88;;;-3.50;99.90;;;;;;5093128;28;20211;-84
2021/01/10 02:26:13;;;;;;;20.58;10.13;;;-3.60;99.90;;;;;;5093499;28;20229;-83
2021/01/10 02:28:40;;;;;;;19.80;12.68;;;-3.60;99.90;;;;;;5093458;28;20206;-83
2021/01/10 02:31:09;;;;;;;16.25;7.53;;;-3.60;99.90;;;;;;5091708;28;20254;-82
2021/01/10 02:33:41;;;;;;;14.50;8.23;;;-3.60;99.90;;;;;;5093622;28;20752;-82
2021/01/10 02:36:14;;;;;;;14.15;9.32;;;-3.60;99.90;;;;;;5093802;28;20615;-83
2021/01/10 02:38:47;;;;;;;16.08;9.40;;;-3.60;99.90;;;;;;5093596;28;20244;-84
2021/01/10 02:41:25;;;;;;;15.60;9.48;;;-3.60;99.90;;;;;;5093400;28;20283;-84
2021/01/10 02:44:06;;;;;;;20.27;7.93;;;-3.60;99.90;;;;;;5093671;28;20211;-83
2021/01/10 02:46:35;;;;;;;14.20;9.50;;;-3.60;99.90;;;;;;5091361;28;20234;-83
2021/01/10 02:49:01;;;;;;;14.10;8.18;;;-3.60;99.90;;;;;;5093692;28;20244;-83
2021/01/10 02:51:27;;;;;;;13.15;7.65;;;-3.70;99.90;;;;;;5093454;28;20232;-82
2021/01/10 02:53:54;;;;;;;16.58;9.00;;;-3.70;99.90;;;;;;5093423;28;20244;-83
2021/01/10 02:56:22;;;;;;;17.13;8.95;;;-3.80;99.90;;;;;;5093442;28;20292;-83
2021/01/10 02:58:51;;;;;;;12.98;8.48;;;-3.80;99.90;;;;;;5093517;28;20204;-84
2021/01/10 03:01:18;;;;;;;13.55;8.90;;;-3.90;99.90;;;;;;5092680;28;20295;-83
2021/01/10 03:03:46;;;;;;;15.60;8.52;;;-3.90;99.90;;;;;;5094036;28;20207;-83
2021/01/10 03:06:13;;;;;;;14.48;7.57;;;-3.90;99.90;;;;;;5093435;28;20296;-83
2021/01/10 03:08:40;;;;;;;14.30;9.23;;;-4.00;99.90;;;;;;5093724;28;20334;-81
2021/01/10 03:11:06;;;;;;;14.95;7.75;;;-4.00;99.90;;;;;;5095856;28;20232;-84
2021/01/10 03:13:33;;;;;;;10.32;7.60;;;-4.00;99.90;;;;;;5086962;28;20202;-84
2021/01/10 03:16:00;;;;;;;19.73;9.73;;;-3.90;99.90;;;;;;5072523;28;20375;-84
2021/01/10 03:18:26;;;;;;;15.73;8.32;;;-3.90;99.90;;;;;;5072878;28;20201;-83
2021/01/10 03:20:53;;;;;;;19.50;9.88;;;-4.00;99.90;;;;;;5073009;28;20293;-82
2021/01/10 03:23:19;;;;;;;17.50;8.07;;;-4.10;99.90;;;;;;5072901;28;20241;-83
2021/01/10 03:25:45;;;;;;;15.70;8.93;;;-4.10;99.90;;;;;;5073026;28;20668;-82
2021/01/10 03:28:12;;;;;;;14.27;8.52;;;-4.10;99.90;;;;;;5072802;28;20320;-82
2021/01/10 03:30:39;;;;;;;10.70;6.80;;;-4.10;99.90;;;;;;5071657;28;20292;-83
2021/01/10 03:33:06;;;;;;;12.23;7.22;;;-4.10;99.90;;;;;;5072674;28;20314;-84
2021/01/10 03:35:34;;;;;;;14.38;7.18;;;-4.00;99.90;;;;;;5076542;28;20229;-83
2021/01/10 03:38:01;;;;;;;14.57;8.25;;;-4.00;99.90;;;;;;5077245;28;20198;-83
2021/01/10 03:40:28;;;;;;;16.17;8.43;;;-3.90;99.90;;;;;;5077831;28;20338;-82
2021/01/10 03:42:54;;;;;;;14.50;7.57;;;-3.80;99.90;;;;;;5078437;28;20292;-84
2021/01/10 03:45:20;;;;;;;15.10;7.30;;;-3.80;99.90;;;;;;5079862;28;20304;-85
2021/01/10 03:47:47;;;;;;;21.88;8.27;;;-3.70;99.90;;;;;;5097224;28;20205;-83
2021/01/10 03:50:14;;;;;;;17.02;9.48;;;-3.50;99.90;;;;;;5099046;28;20225;-83
2021/01/10 03:52:40;;;;;;;16.23;8.98;;;-3.40;99.90;;;;;;5099387;28;20259;-84
2021/01/10 03:55:08;;;;;;;15.00;8.57;;;-3.30;99.90;;;;;;5080709;28;20233;-83
2021/01/10 03:57:37;;;;;;;15.38;8.63;;;-3.30;99.90;;;;;;5077171;28;20205;-83
2021/01/10 04:00:05;;;;;;;16.05;8.88;;;-3.20;99.90;;;;;;5075695;28;20284;-84
2021/01/10 04:02:35;;;;;;;13.35;8.45;;;-3.00;99.90;;;;;;5076205;28;20216;-84
2021/01/10 04:05:03;;;;;;;19.00;9.20;;;-2.90;99.90;;;;;;5076319;28;20241;-83
2021/01/10 04:07:30;;;;;;;11.00;7.53;;;-2.90;99.90;;;;;;5076176;28;20292;-82
2021/01/10 04:09:56;;;;;;;14.00;9.70;;;-2.80;99.90;;;;;;5076127;28;20205;-84
2021/01/10 04:12:22;;;;;;;9.80;6.35;;;-2.70;99.90;;;;;;5076209;28;20293;-83
2021/01/10 04:14:49;;;;;;;14.38;7.53;;;-2.80;99.90;;;;;;5075196;28;20687;-83
2021/01/10 04:17:15;;;;;;;10.32;7.07;;;-2.70;99.90;;;;;;5076054;28;20248;-84
2021/01/10 04:19:41;;;;;;;11.13;7.75;;;-2.70;99.90;;;;;;5076174;28;20288;-83
2021/01/10 04:22:09;;;;;;;15.50;10.43;;;-2.50;99.90;;;;;;5075997;28;20292;-83
2021/01/10 04:24:35;;;;;;;15.13;7.68;;;-2.50;99.90;;;;;;5076116;28;20290;-82
2021/01/10 04:27:01;;;;;;;13.82;9.20;;;-2.40;99.90;;;;;;5075746;28;20316;-85
2021/01/10 04:29:28;;;;;;;12.65;7.95;;;-2.40;99.90;;;;;;5074720;28;20209;-83
2021/01/10 04:31:55;;;;;;;14.63;9.38;;;-2.40;99.90;;;;;;5076018;28;20206;-84
2021/01/10 04:34:21;;;;;;;16.15;8.18;;;-2.40;99.90;;;;;;5074791;28;20317;-83
2021/01/10 04:36:48;;;;;;;16.92;9.35;;;-2.40;99.90;;;;;;5075790;28;20343;-85
2021/01/10 04:39:15;;;;;;;13.45;7.78;;;-2.30;99.90;;;;;;5075988;28;20197;-83
2021/01/10 04:41:45;;;;;;;11.32;8.05;;;-2.20;99.90;;;;;;5075630;28;20202;-84
2021/01/10 04:44:13;;;;;;;15.10;8.13;;;-2.10;99.90;;;;;;5074608;28;20538;-83
2021/01/10 04:46:41;;;;;;;19.73;10.60;;;-2.00;99.90;;;;;;5073954;28;20235;-83
2021/01/10 04:49:08;;;;;;;13.20;9.05;;;-2.10;99.90;;;;;;5075329;28;20293;-83
2021/01/10 04:51:38;;;;;;;13.55;7.55;;;-2.10;99.90;;;;;;5075595;28;20296;-83
2021/01/10 04:54:06;;;;;;;16.20;8.45;;;-2.00;99.90;;;;;;5075407;28;20560;-84
2021/01/10 04:56:35;;;;;;;13.75;8.65;;;-2.10;99.90;;;;;;5075474;28;20292;-83
2021/01/10 04:59:03;;;;;;;12.02;7.18;;;-2.10;99.90;;;;;;5074422;28;20300;-84
2021/01/10 05:01:34;;;;;;;15.88;8.85;;;-2.10;99.90;;;;;;5078457;28;20227;-86
2021/01/10 05:04:01;;;;;;;16.55;8.40;;;-2.10;99.90;;;;;;5095487;28;20200;-85
2021/01/10 05:06:28;;;;;;;11.10;6.28;;;-1.90;99.90;;;;;;5094892;28;20235;-84
2021/01/10 05:08:56;;;;;;;14.30;8.25;;;-1.90;99.90;;;;;;5095297;28;20291;-85
2021/01/10 05:11:22;;;;;;;20.50;12.95;;;-2.00;99.90;;;;;;5095429;28;20197;-85
2021/01/10 05:13:50;;;;;;;14.48;10.00;;;-2.00;99.90;;;;;;5095174;28;20201;-84
2021/01/10 05:16:20;;;;;;;15.15;8.65;;;-1.90;99.90;;;;;;5094183;28;20319;-86
2021/01/10 05:18:50;;;;;;;17.60;10.13;;;-1.90;99.90;;;;;;5095079;28;20728;-85
2021/01/10 05:21:19;;;;;;;16.38;9.65;;;-2.00;99.90;;;;;;5094453;28;20214;-86
2021/01/10 05:23:48;;;;;;;12.52;8.13;;;-2.00;99.90;;;;;;5095311;28;20204;-84
2021/01/10 05:26:15;;;;;;;13.32;7.85;;;-2.00;99.90;;;;;;5094756;28;20633;-85
2021/01/10 05:28:44;;;;;;;70.35;37.45;;;-1.90;99.90;;;;;;5094752;28;20240;-84
2021/01/10 05:31:12;;;;;;;35.70;19.90;;;-1.90;99.90;;;;;;5093788;28;20208;-85
2021/01/10 05:33:56;;;;;;;11.98;9.10;;;-1.90;99.90;;;;;;5094981;28;20200;-84
2021/01/10 05:36:31;;;;;;;15.02;7.85;;;-1.70;99.90;;;;;;5094472;28;20748;-84
2021/01/10 05:38:57;;;;;;;10.18;7.75;;;-1.70;99.90;;;;;;5094934;28;20291;-84
2021/01/10 05:41:26;;;;;;;17.80;9.63;;;-1.70;99.90;;;;;;5094980;28;20205;-83
2021/01/10 05:44:00;;;;;;;14.65;7.45;;;-1.70;99.90;;;;;;5094657;28;20212;-85
2021/01/10 05:46:32;;;;;;;14.70;8.50;;;-1.70;99.90;;;;;;5094708;28;20243;-85
2021/01/10 05:48:59;;;;;;;14.88;9.57;;;-1.70;99.90;;;;;;5094589;28;20675;-84
2021/01/10 05:51:28;;;;;;;9.30;6.85;;;-1.70;99.90;;;;;;5094219;28;20240;-84
2021/01/10 05:53:54;;;;;;;10.80;8.25;;;-1.70;99.90;;;;;;5094645;28;20212;-84
2021/01/10 05:56:21;;;;;;;18.08;8.88;;;-1.80;99.90;;;;;;5094550;28;20336;-85
2021/01/10 05:58:55;;;;;;;12.45;7.35;;;-1.80;99.90;;;;;;5094008;28;20502;-85
2021/01/10 06:01:23;;;;;;;16.70;7.22;;;-1.70;99.90;;;;;;5093709;28;20737;-84
2021/01/10 06:03:52;;;;;;;11.13;7.63;;;-1.60;99.90;;;;;;5094550;28;20255;-85
2021/01/10 06:06:19;;;;;;;14.35;8.32;;;-1.60;99.90;;;;;;5094247;28;20613;-85
2021/01/10 06:08:46;;;;;;;10.38;7.30;;;-1.70;99.90;;;;;;5094606;28;20205;-85
2021/01/10 06:11:21;;;;;;;15.18;8.98;;;-1.70;99.90;;;;;;5076578;28;20790;-84
2021/01/10 06:13:54;;;;;;;16.38;7.47;;;-1.60;99.90;;;;;;5074193;28;20610;-84
2021/01/10 06:16:23;;;;;;;11.23;6.78;;;-1.60;99.90;;;;;;5072909;28;20261;-85
2021/01/10 06:18:52;;;;;;;12.43;6.75;;;-1.60;99.90;;;;;;5069919;28;20286;-84
2021/01/10 06:21:22;;;;;;;14.10;9.50;;;-1.60;99.90;;;;;;5073671;28;20641;-83
2021/01/10 06:23:54;;;;;;;11.45;7.10;;;-1.60;99.90;;;;;;5074025;28;20747;-83
2021/01/10 06:26:22;;;;;;;9.93;6.55;;;-1.40;99.90;;;;;;5073690;28;20324;-85
2021/01/10 06:28:58;;;;;;;8.63;6.38;;;-1.40;99.90;;;;;;5073775;28;20296;-84
2021/01/10 06:31:26;;;;;;;10.48;7.00;;;-1.50;99.90;;;;;;5073975;28;20208;-83
2021/01/10 06:34:03;;;;;;;13.45;7.53;;;-1.60;99.90;;;;;;5073993;28;20296;-85
2021/01/10 06:36:34;;;;;;;13.57;9.32;;;-1.60;99.90;;;;;;5073245;28;20418;-84
2021/01/10 06:39:09;;;;;;;9.02;7.13;;;-1.60;99.90;;;;;;5073354;28;20208;-85
2021/01/10 06:42:05;;;;;;;12.40;7.18;;;-1.70;99.90;;;;;;5073774;28;20201;-83
2021/01/10 06:44:34;;;;;;;12.65;8.52;;;-1.50;99.90;;;;;;5072491;28;20209;-83
2021/01/10 06:47:01;;;;;;;15.30;8.48;;;-1.50;99.90;;;;;;5073820;28;20696;-84
2021/01/10 06:49:31;;;;;;;13.45;7.82;;;-1.60;99.90;;;;;;5073516;28;20664;-84
2021/01/10 06:51:59;;;;;;;14.82;8.93;;;-1.50;99.90;;;;;;5073010;28;20687;-85
2021/01/10 06:54:27;;;;;;;14.70;7.95;;;-1.40;99.90;;;;;;5037966;28;20284;-85
2021/01/10 06:56:55;;;;;;;13.82;7.20;;;-1.30;99.90;;;;;;5073791;28;20205;-84
2021/01/10 06:59:22;;;;;;;12.32;9.32;;;-1.40;99.90;;;;;;5072557;28;20213;-85
2021/01/10 07:02:01;;;;;;;14.20;10.68;;;-1.50;99.90;;;;;;5073599;28;20571;-85
2021/01/10 07:04:59;;;;;;;16.08;10.82;;;-1.50;99.90;;;;;;5073419;28;20215;-85
2021/01/10 07:07:50;;;;;;;16.40;11.35;;;-1.60;99.90;;;;;;5084457;28;20243;-84
2021/01/10 07:10:26;;;;;;;20.95;13.02;;;-1.70;99.90;;;;;;5096294;28;20228;-84
2021/01/10 07:12:53;;;;;;;17.92;12.00;;;-1.70;99.90;;;;;;5097613;28;20235;-85
2021/01/10 07:15:24;;;;;;;19.33;13.18;;;-1.70;99.90;;;;;;5096244;28;20220;-84
2021/01/10 07:18:07;;;;;;;21.00;12.40;;;-1.70;99.90;;;;;;5097568;28;20236;-84
2021/01/10 07:20:45;;;;;;;23.55;12.07;;;-1.70;99.90;;;;;;5097565;28;20621;-83
2021/01/10 07:23:29;;;;;;;18.55;10.90;;;-1.70;99.90;;;;;;5094728;28;20224;-83
2021/01/10 07:25:57;;;;;;;16.80;9.82;;;-1.60;99.90;;;;;;5098454;27;20215;-83
2021/01/10 07:28:42;;;;;;;17.88;9.85;;;-1.70;99.90;;;;;;5097260;28;20205;-83
2021/01/10 07:31:12;;;;;;;16.73;10.35;;;-1.70;99.90;;;;;;5095935;28;20568;-82
2021/01/10 07:33:38;;;;;;;18.52;9.73;;;-1.70;99.90;;;;;;5097420;28;20243;-83
2021/01/10 07:36:06;;;;;;;16.63;9.98;;;-1.60;99.90;;;;;;5096485;28;20228;-82
2021/01/10 07:38:35;;;;;;;19.17;12.30;;;-1.60;99.90;;;;;;5096857;28;20215;-84
2021/01/10 07:41:20;;;;;;;12.98;8.93;;;-1.60;99.90;;;;;;5096934;28;20197;-83
2021/01/10 07:43:52;;;;;;;16.83;10.07;;;-1.70;99.90;;;;;;5097384;28;20211;-84
2021/01/10 07:47:00;;;;;;;14.10;9.60;;;-1.60;99.90;;;;;;5095745;28;20201;-83
2021/01/10 07:49:32;;;;;;;23.95;13.73;;;-1.60;99.90;;;;;;5096611;28;20201;-83
2021/01/10 07:52:00;;;;;;;22.25;14.00;;;-1.60;99.90;;;;;;5096454;28;20240;-82
2021/01/10 07:54:53;;;;;;;21.20;13.85;;;-1.60;99.90;;;;;;5061081;28;20201;-83
2021/01/10 07:57:33;;;;;;;17.48;11.85;;;-1.50;99.90;;;;;;5096613;28;20338;-82
2021/01/10 08:00:08;;;;;;;17.70;11.73;;;-1.60;99.90;;;;;;5095257;28;20205;-83
2021/01/10 08:02:51;;;;;;;23.52;15.02;;;-1.60;99.90;;;;;;5096465;28;20201;-83
2021/01/10 08:05:19;;;;;;;23.38;14.85;;;-1.50;99.90;;;;;;5096774;28;20236;-82
2021/01/10 08:07:52;;;;;;;21.88;13.50;;;-1.50;99.90;;;;;;5095549;28;20288;-83
2021/01/10 08:10:22;;;;;;;23.98;14.38;;;-1.40;99.90;;;;;;5096375;28;20303;-83
2021/01/10 08:12:48;;;;;;;20.60;13.27;;;-1.30;99.90;;;;;;5096127;28;20228;-83
2021/01/10 08:15:17;;;;;;;15.68;11.65;;;-1.30;99.90;;;;;;5094993;28;20235;-82
2021/01/10 08:17:43;;;;;;;21.35;12.63;;;-1.30;99.90;;;;;;5096164;28;20212;-82
2021/01/10 08:20:11;;;;;;;13.75;8.68;;;-1.10;99.90;;;;;;5096189;28;20698;-82
2021/01/10 08:22:41;;;;;;;17.08;10.02;;;-1.10;99.90;;;;;;5095685;28;20201;-81
2021/01/10 08:25:20;;;;;;;19.88;10.90;;;-1.10;99.90;;;;;;5095931;28;20208;-82
2021/01/10 08:27:47;;;;;;;19.27;11.00;;;-1.00;99.90;;;;;;5095873;28;20373;-82
2021/01/10 08:30:15;;;;;;;20.33;11.80;;;-1.00;99.90;;;;;;5095019;28;20205;-82
2021/01/10 08:32:41;;;;;;;16.85;10.30;;;-1.00;99.90;;;;;;5095417;28;20209;-82
2021/01/10 08:35:10;;;;;;;17.33;11.75;;;-1.00;99.90;;;;;;5095966;28;20324;-81
2021/01/10 08:37:37;;;;;;;16.88;11.88;;;-0.90;99.90;;;;;;5095494;28;20197;-83
2021/01/10 08:40:11;;;;;;;17.27;10.48;;;-0.90;99.90;;;;;;5095861;28;20568;-82
2021/01/10 08:42:38;;;;;;;17.50;11.63;;;-1.00;99.90;;;;;;5096091;28;20219;-82
2021/01/10 08:45:21;;;;;;;18.90;9.73;;;-1.00;99.90;;;;;;5094616;28;20209;-82
2021/01/10 08:47:49;;;;;;;15.00;9.73;;;-0.90;99.90;;;;;;5095643;28;20292;-82
2021/01/10 08:50:16;;;;;;;17.00;11.68;;;-0.80;99.90;;;;;;5095831;28;20205;-82
2021/01/10 08:52:53;;;;;;;13.85;10.15;;;-0.60;99.90;;;;;;5095208;28;20611;-82
2021/01/10 08:55:30;;;;;;;15.60;10.10;;;-0.60;99.90;;;;;;5095684;28;20228;-84
2021/01/10 08:57:59;;;;;;;16.08;10.85;;;-0.30;99.90;;;;;;5095688;28;20307;-83
2021/01/10 09:00:25;;;;;;;19.17;12.73;;;-0.40;99.90;;;;;;5093929;28;20296;-83
2021/01/10 09:02:52;;;;;;;20.55;11.70;;;-0.10;99.90;;;;;;5095684;28;20275;-84
2021/01/10 09:05:25;;;;;;;17.85;11.43;;;0.20;99.90;;;;;;5096037;28;20295;-83
2021/01/10 09:07:57;;;;;;;23.38;15.80;;;0.30;99.90;;;;;;5079880;28;20209;-83
2021/01/10 09:10:29;;;;;;;73.78;40.55;;;0.40;99.90;;;;;;5075206;28;20293;-82
2021/01/10 09:13:05;;;;;;;26.17;16.83;;;0.50;99.90;;;;;;5074422;28;20249;-80
2021/01/10 09:15:34;;;;;;;39.58;21.60;;;0.30;99.90;;;;;;5073260;28;20262;-80
2021/01/10 09:18:03;;;;;;;80.97;44.72;;;0.00;99.90;;;;;;5074330;28;20205;-81
2021/01/10 09:20:33;;;;;;;56.00;34.42;;;-0.20;99.90;;;;;;5074219;28;20583;-81
2021/01/10 09:23:06;;;;;;;37.72;15.52;;;-0.20;99.90;;;;;;5074307;28;20263;-80
2021/01/10 09:25:33;;;;;;;15.57;10.73;;;-0.30;99.90;;;;;;5074506;28;20205;-80
2021/01/10 09:28:10;;;;;;;15.10;10.88;;;-0.20;99.90;;;;;;5074239;28;20296;-80
2021/01/10 09:30:38;;;;;;;30.95;17.77;;;-0.30;99.90;;;;;;5073728;28;20236;-79
2021/01/10 09:33:07;;;;;;;21.13;16.25;;;-0.20;99.90;;;;;;5074399;28;20308;-80
2021/01/10 09:35:37;;;;;;;54.15;30.05;;;-0.10;99.90;;;;;;5074469;28;20229;-81
2021/01/10 09:38:22;;;;;;;13.65;9.13;;;0.00;99.90;;;;;;5074322;28;20763;-80
2021/01/10 09:41:02;;;;;;;16.90;11.27;;;0.00;99.90;;;;;;5074815;28;20656;-81
2021/01/10 09:43:42;;;;;;;13.30;9.15;;;0.10;99.90;;;;;;5074929;28;20284;-80
2021/01/10 09:46:29;;;;;;;20.45;11.25;;;0.10;99.90;;;;;;5072986;28;20446;-81
2021/01/10 09:48:57;;;;;;;19.40;13.05;;;0.20;99.90;;;;;;5074114;28;20442;-80
2021/01/10 09:51:24;;;;;;;24.35;14.50;;;0.30;99.90;;;;;;5083940;28;20277;-80
2021/01/10 09:53:50;;;;;;;15.88;10.65;;;0.40;99.90;;;;;;5095414;28;20744;-82
2021/01/10 09:56:44;;;;;;;16.30;10.57;;;0.60;99.90;;;;;;5097264;28;20320;-82
2021/01/10 09:59:33;;;;;;;12.27;10.02;;;0.50;99.90;;;;;;5095404;28;20365;-82
2021/01/10 10:02:00;;;;;;;13.43;9.77;;;0.50;99.90;;;;;;5097907;28;20270;-82
2021/01/10 10:04:28;;;;;;;20.85;12.82;;;0.40;99.90;;;;;;5111965;28;20234;-82
2021/01/10 10:06:55;;;;;;;16.73;9.60;;;0.70;99.90;;;;;;5108128;28;20211;-82
2021/01/10 10:09:43;;;;;;;22.58;14.00;;;0.80;99.90;;;;;;5111335;28;20205;-85
2021/01/10 10:12:10;;;;;;;14.32;8.93;;;0.80;99.90;;;;;;5099196;28;20291;-82
2021/01/10 10:14:37;;;;;;;22.63;12.57;;;0.90;99.90;;;;;;5094360;28;20334;-82
2021/01/10 10:17:10;;;;;;;20.20;10.88;;;1.10;99.90;;;;;;5097995;28;20609;-82
2021/01/10 10:19:37;;;;;;;24.05;13.38;;;1.20;99.90;;;;;;5095355;28;20668;-82
2021/01/10 10:22:19;;;;;;;16.63;9.20;;;1.00;99.90;;;;;;5094046;28;20236;-82
2021/01/10 10:24:45;;;;;;;9.77;5.35;;;1.30;99.90;;;;;;5094827;28;20227;-80
2021/01/10 10:27:12;;;;;;;9.93;5.70;;;1.50;99.90;;;;;;5094682;28;20232;-83
2021/01/10 10:29:41;;;;;;;11.75;6.80;;;1.50;99.90;;;;;;5094964;28;20240;-83
2021/01/10 10:32:08;;;;;;;10.60;4.72;;;1.50;99.90;;;;;;5094917;28;20208;-81
2021/01/10 10:34:36;;;;;;;9.43;5.17;;;1.60;99.90;;;;;;5094746;28;20201;-81
2021/01/10 10:37:04;;;;;;;6.68;5.93;;;1.60;99.90;;;;;;5085900;28;20201;-82
2021/01/10 10:39:31;;;;;;;12.00;7.35;;;1.60;99.90;;;;;;5075831;28;20224;-85
2021/01/10 10:41:57;;;;;;;9.40;5.90;;;1.60;99.90;;;;;;5073691;28;20270;-81
2021/01/10 10:44:24;;;;;;;19.80;10.40;;;1.90;99.90;;;;;;5070997;28;20209;-83
2021/01/10 10:46:51;;;;;;;8.63;5.57;;;1.90;99.90;;;;;;5072746;28;20219;-81
2021/01/10 10:49:17;;;;;;;9.07;5.60;;;1.80;99.90;;;;;;5072953;28;20245;-81
2021/01/10 10:51:44;;;;;;;8.80;6.82;;;1.80;99.90;;;;;;5072656;28;20208;-81
2021/01/10 10:54:11;;;;;;;7.40;6.28;;;1.80;99.90;;;;;;5073108;28;20783;-82
2021/01/10 10:56:39;;;;;;;9.27;6.05;;;1.80;99.90;;;;;;5075012;28;20570;-82
2021/01/10 10:59:06;;;;;;;10.30;6.07;;;1.70;99.90;;;;;;5076767;28;20208;-82
2021/01/10 11:01:40;;;;;;;6.10;4.28;;;1.80;99.90;;;;;;5076682;28;20201;-83
2021/01/10 11:04:08;;;;;;;12.15;5.75;;;1.80;99.90;;;;;;5040986;28;20241;-78
2021/01/10 11:06:36;;;;;;;8.38;5.53;;;2.00;99.90;;;;;;5122711;27;20345;-83
2021/01/10 11:09:05;;;;;;;8.68;6.30;;;2.20;99.90;;;;;;5130155;27;20225;-81
2021/01/10 11:11:36;;;;;;;7.90;5.57;;;2.50;99.90;;;;;;5132843;27;20290;-82
2021/01/10 11:14:03;;;;;;;10.13;5.97;;;2.40;99.90;;;;;;5132855;27;20239;-82
2021/01/10 11:16:34;;;;;;;9.73;6.63;;;2.10;99.90;;;;;;5132975;27;20701;-83
2021/01/10 11:19:00;;;;;;;9.95;5.68;;;2.10;99.90;;;;;;5133250;27;20568;-82
2021/01/10 11:21:30;;;;;;;5.97;5.38;;;2.00;99.90;;;;;;5132961;27;20207;-82
2021/01/10 11:23:56;;;;;;;7.97;6.22;;;2.00;99.90;;;;;;5126238;27;20204;-82
2021/01/10 11:26:23;;;;;;;9.32;6.18;;;2.00;99.90;;;;;;5094360;28;20331;-82
2021/01/10 11:28:49;;;;;;;11.30;7.55;;;1.90;99.90;;;;;;5095076;28;20264;-82
2021/01/10 11:31:17;;;;;;;8.75;6.60;;;1.80;99.90;;;;;;5093793;28;20260;-83
2021/01/10 11:33:44;;;;;;;7.68;5.22;;;1.90;99.90;;;;;;5098135;28;20201;-83
2021/01/10 11:36:10;;;;;;;12.82;6.78;;;1.80;99.90;;;;;;5096255;28;20228;-81
2021/01/10 11:38:43;;;;;;;7.93;5.85;;;1.90;99.90;;;;;;5096912;28;20296;-83
2021/01/10 11:41:12;;;;;;;8.02;5.75;;;2.00;99.90;;;;;;5093779;28;20296;-81
2021/01/10 11:43:39;;;;;;;16.45;5.43;;;2.00;99.90;;;;;;5094307;28;20293;-83
2021/01/10 11:46:08;;;;;;;6.97;4.80;;;1.80;99.90;;;;;;5092748;28;20291;-82
2021/01/10 11:48:36;;;;;;;7.40;6.35;;;1.80;99.90;;;;;;5095596;28;20255;-83
2021/01/10 11:51:04;;;;;;;7.88;5.60;;;1.90;99.90;;;;;;5094791;28;20610;-82
2021/01/10 11:53:31;;;;;;;9.50;5.60;;;2.00;99.90;;;;;;5094460;28;20197;-82
2021/01/10 11:56:00;;;;;;;9.65;6.25;;;2.00;99.90;;;;;;5095704;28;20324;-82
2021/01/10 11:58:28;;;;;;;7.15;4.78;;;2.00;99.90;;;;;;5097617;28;20237;-82
2021/01/10 12:00:55;;;;;;;9.25;6.40;;;1.80;99.90;;;;;;5097612;28;20564;-84
2021/01/10 12:03:23;;;;;;;7.05;5.72;;;1.80;99.90;;;;;;5097918;28;20292;-82
2021/01/10 12:05:50;;;;;;;9.52;5.50;;;1.90;99.90;;;;;;5098472;28;20248;-82
2021/01/10 12:08:17;;;;;;;10.23;4.80;;;1.90;99.90;;;;;;5097635;28;20207;-82
2021/01/10 12:10:43;;;;;;;7.05;4.25;;;2.10;99.90;;;;;;5096545;28;20287;-83
2021/01/10 12:13:12;;;;;;;5.25;3.92;;;2.10;99.90;;;;;;5096603;28;20284;-81
2021/01/10 12:15:38;;;;;;;7.55;5.03;;;2.10;99.90;;;;;;5095338;28;20225;-83
2021/01/10 12:18:07;;;;;;;4.55;4.07;;;2.00;99.90;;;;;;5096673;28;20697;-83
2021/01/10 12:20:37;;;;;;;8.38;3.92;;;2.00;99.90;;;;;;5098531;28;20201;-81
2021/01/10 12:23:11;;;;;;;8.15;4.68;;;2.00;99.90;;;;;;5107936;28;20334;-83
2021/01/10 12:25:38;;;;;;;6.53;4.55;;;2.10;99.90;;;;;;5111264;28;20209;-82
2021/01/10 12:28:05;;;;;;;6.55;4.18;;;2.20;99.90;;;;;;5096546;28;20324;-83
2021/01/10 12:30:33;;;;;;;8.68;5.10;;;2.30;99.90;;;;;;5095437;28;20211;-84
2021/01/10 12:33:00;;;;;;;8.75;5.93;;;2.40;99.90;;;;;;5096303;28;20206;-83
2021/01/10 12:35:26;;;;;;;11.77;6.90;;;2.50;99.90;;;;;;5096343;28;20232;-83
2021/01/10 12:37:53;;;;;;;7.60;5.20;;;2.70;99.90;;;;;;5095745;28;20205;-84
2021/01/10 12:40:22;;;;;;;7.75;5.07;;;2.70;99.90;;;;;;5098256;28;20296;-84
2021/01/10 12:42:49;;;;;;;5.80;4.15;;;2.70;99.90;;;;;;5097203;28;20201;-86
2021/01/10 12:45:17;;;;;;;3.80;3.40;;;2.70;99.90;;;;;;5095809;28;20211;-88
2021/01/10 12:47:45;;;;;;;7.97;5.43;;;2.60;99.90;;;;;;5097533;28;20209;-85
2021/01/10 12:50:13;;;;;;;5.82;4.43;;;2.50;99.90;;;;;;5097467;28;20201;-85